Flight Track Log - Related Links

Times and Time Zones

All times are in EDT time to prevent confusion due to time zone crossing. See the CFS671 flight status page for this flight to view local times or setup timezone preferences in your user account.

Time Position Orientation Groundspeed Altitude Reporting Facility
EDT Latitude Longitude Course Direction KTS MPH feet Rate Location/Type
Tue 07:25:26 PM 42.1425 -121.7289 283° West 40 46 4,000  Level Seattle Center
Tue 07:26:27 PM 42.1561 -121.7339 345° North 92 106 4,300 590 Climbing Seattle Center
Tue 07:27:28 PM 42.1797 -121.7489 335° Northwest 95 109 5,200 738 Climbing Seattle Center
Tue 07:28:29 PM 42.1775 -121.7808 265° West 120 138 5,800 590 Climbing Seattle Center
Tue 07:29:30 PM 42.1669 -121.8242 252° West 121 139 6,400 541 Climbing Seattle Center
Tue 07:30:31 PM 42.1731 -121.8692 280° West 122 140 6,900 590 Climbing Seattle Center
Tue 07:31:00 PM 42.2034 -122.0704 283° West  Level FlightAware Approximate
Tue 07:31:32 PM 42.1822 -121.9158 285° West 127 146 7,600  Level Seattle Center
Tue 07:32:33 PM 42.1886 -121.9611 281° West 126 145 8,300 541 Climbing Seattle Center
Tue 07:33:34 PM 42.1956 -122.0111 281° West 131 151 8,700 639 Climbing Seattle Center
Tue 07:34:35 PM 42.2067 -122.0750 283° West 141 162 9,600 541 Climbing Seattle Center
Tue 07:35:36 PM 42.2156 -122.1278 283° West 144 166 9,800 197 Climbing Seattle Center
Tue 07:36:37 PM 42.2242 -122.1825 282° West 147 169 10,000 98 Climbing Seattle Center
Tue 07:37:38 PM 42.2333 -122.2422 282° West 154 177 10,000  Level Seattle Center
Tue 07:38:39 PM 42.2447 -122.3017 285° West 160 184 10,000  Level Seattle Center
Tue 07:39:40 PM 42.2678 -122.3542 301° West 166 191 10,000  Level Seattle Center
Tue 07:40:41 PM 42.2858 -122.4097 294° West 162 186 10,000  Level Seattle Center
Tue 07:41:42 PM 42.3069 -122.4647 297° West 164 189 10,000  Level Seattle Center
Tue 07:42:43 PM 42.3311 -122.5178 302° West 166 191 10,000  Level Seattle Center
Tue 07:43:44 PM 42.3653 -122.5539 322° Northwest 156 180 10,000  Level Seattle Center
Tue 07:44:45 PM 42.4003 -122.5861 326° Northwest 153 176 10,000  Level Seattle Center
Tue 07:45:46 PM 42.4350 -122.6239 321° Northwest 159 183 10,000  Level Seattle Center
Tue 07:46:46 PM 42.4769 -122.6667 323° Northwest 157 181 10,000  Level Seattle Center
Tue 07:47:47 PM 42.5108 -122.7053 320° Northwest 159 183 10,000  Level Seattle Center
Tue 07:48:48 PM 42.5461 -122.7417 323° Northwest 159 183 10,000  Level Seattle Center
Tue 07:49:49 PM 42.5800 -122.7783 321° Northwest 156 180 10,000  Level Seattle Center
Tue 07:50:50 PM 42.6136 -122.8150 321° Northwest 156 180 10,000  Level Seattle Center
Tue 07:51:51 PM 42.6475 -122.8514 322° Northwest 156 180 10,000  Level Seattle Center
Tue 07:52:52 PM 42.6819 -122.8872 323° Northwest 156 180 10,000  Level Seattle Center
Tue 07:53:53 PM 42.7169 -122.9225 323° Northwest 157 181 10,000  Level Seattle Center
Tue 07:54:54 PM 42.7547 -122.9642 321° Northwest 155 178 10,000  Level Seattle Center
Tue 07:55:55 PM 42.7936 -122.9808 343° North 148 170 10,000  Level Seattle Center
Tue 07:56:56 PM 42.8353 -122.9850 356° North 150 173 10,000  Level Seattle Center
Tue 07:57:57 PM 42.8764 -122.9931 352° North 149 171 10,000  Level Seattle Center
Tue 07:58:58 PM 42.9183 -122.9997 353° North 152 175 10,000  Level Seattle Center
Tue 07:59:59 PM 42.9600 -123.0056 354° North 152 175 10,000  Level Seattle Center
Tue 08:01:00 PM 43.0003 -123.0125 353° North 147 169 10,000  Level Seattle Center
Tue 08:02:01 PM 43.0439 -123.0183 354° North 154 177 10,000  Level Seattle Center
Tue 08:03:02 PM 43.0850 -123.0275 351° North 151 174 10,000  Level Seattle Center
Tue 08:04:03 PM 43.1292 -123.0342 354° North 157 181 10,000  Level Seattle Center
Tue 08:05:03 PM 43.1708 -123.0428 351° North 153 176 10,000  Level Seattle Center
Tue 08:06:04 PM 43.2144 -123.0497 353° North 156 180 10,000  Level Seattle Center
Tue 08:07:05 PM 43.2569 -123.0586 351° North 154 177 10,000  Level Seattle Center
Tue 08:08:06 PM 43.2994 -123.0647 354° North 154 177 10,000  Level Seattle Center
Tue 08:09:07 PM 43.3500 -123.0750 352° North 152 175 10,000  Level Seattle Center
Tue 08:10:08 PM 43.3936 -123.0839 352° North 158 182 10,000  Level Seattle Center
Tue 08:11:09 PM 43.4372 -123.0919 352° North 158 182 10,000  Level Seattle Center
Tue 08:12:10 PM 43.4808 -123.0989 353° North 157 181 10,000  Level Seattle Center
Tue 08:13:11 PM 43.5236 -123.1086 351° North 156 180 10,000  Level Seattle Center
Tue 08:14:12 PM 43.5681 -123.1158 353° North 159 183 10,000  Level Seattle Center
Tue 08:15:13 PM 43.6114 -123.1247 352° North 158 182 10,000  Level Seattle Center
Tue 08:16:14 PM 43.6550 -123.1325 353° North 158 182 10,000  Level Seattle Center
Tue 08:17:15 PM 43.7003 -123.1414 352° North 160 184 10,000  Level Seattle Center
Tue 08:18:16 PM 43.7439 -123.1506 351° North 160 184 10,000  Level Seattle Center
Tue 08:19:17 PM 43.7900 -123.1589 353° North 165 190 10,000  Level Seattle Center
Tue 08:20:18 PM 43.8356 -123.1675 352° North 166 191 10,000  Level Seattle Center
Tue 08:21:19 PM 43.8814 -123.1764 352° North 166 191 10,000  Level Seattle Center
Tue 08:22:20 PM 43.9364 -123.1869 352° North 165 190 10,000  Level Seattle Center
Tue 08:23:21 PM 43.9825 -123.1950 353° North 166 191 10,000  Level Seattle Center
Tue 08:24:22 PM 44.0278 -123.2044 351° North 164 189 10,000  Level Seattle Center
Tue 08:25:23 PM 44.0678 -123.2114 353° North 166 191 10,000  Level Seattle Center
Tue 08:26:24 PM 44.1133 -123.2208 352° North 167 192 10,000  Level Seattle Center
Tue 08:27:25 PM 44.1683 -123.2314 352° North 166 191 10,000  Level Seattle Center
Tue 08:28:26 PM 44.2131 -123.2397 352° North 163 188 10,000  Level Seattle Center
Tue 08:29:27 PM 44.2592 -123.2481 353° North 167 192 10,000  Level Seattle Center
Tue 08:30:28 PM 44.3064 -123.2544 354° North 170 196 10,000  Level Seattle Center
Tue 08:31:29 PM 44.3525 -123.2639 352° North 169 194 10,000  Level Seattle Center
Tue 08:32:30 PM 44.3978 -123.2731 352° North 166 191 10,000  Level Seattle Center
Tue 08:33:30 PM 44.4439 -123.2822 352° North 166 191 10,000  Level Seattle Center
Tue 08:34:31 PM 44.4892 -123.2919 351° North 166 191 10,000  Level Seattle Center
Tue 08:35:32 PM 44.5353 -123.2872 North 167 192 10,000  Level Seattle Center
Tue 08:36:33 PM 44.5792 -123.2661 19° North 167 192 10,000  Level Seattle Center
Tue 08:37:34 PM 44.6244 -123.2503 14° North 168 193 10,000  Level Seattle Center
Tue 08:38:35 PM 44.6781 -123.2311 14° North 167 192 10,000  Level Seattle Center
Tue 08:39:37 PM 44.7231 -123.2142 15° North 168 193 10,000  Level Seattle Center
Tue 08:40:38 PM 44.7672 -123.1972 15° North 167 192 10,000 -148 Level Seattle Center
Tue 08:41:39 PM 44.8114 -123.1806 15° North 166 191 9,700 -595 Descending Seattle Center
Tue 08:42:39 PM 44.8572 -123.1608 17° North 170 196 8,800 -843 Descending Seattle Center
Tue 08:43:40 PM 44.9028 -123.1447 14° North 171 197 8,000 -738 Descending Seattle Center
Tue 08:44:41 PM 44.9467 -123.1289 14° North 166 191 7,300 -787 Descending Seattle Center
Tue 08:45:42 PM 44.9911 -123.1144 13° North 164 189 6,400 -590 Descending Seattle Center
Tue 08:46:43 PM 45.0342 -123.0997 14° North 162 186 6,100 -197 Descending Seattle Center
Tue 08:47:44 PM 45.0764 -123.0825 16° North 159 183 6,000 -49 Descending Seattle Center
Tue 08:48:45 PM 45.1258 -123.0667 13° North 154 177 6,000  Level Seattle Center
Tue 08:49:40 PM 45.1636 -123.0542 13° North 153 176 6,000  Level Seattle Center
Tue 08:50:29 PM 45.1936 -123.0422 16° North 152 175 6,000  Level Seattle Center
Tue 08:50:47 PM 45.2078 -123.0358 18° North 152 175 6,000 -100 Level Seattle Center
Tue 08:51:29 PM 45.2350 -123.0103 33° Northeast 163 188 5,900 -393 Descending Seattle Center
Tue 08:51:48 PM 45.2453 -123.0017 31° Northeast 159 183 5,600 -590 Descending Seattle Center
Tue 08:52:30 PM 45.2706 -122.9717 40° Northeast 174 200 5,300 -492 Descending Seattle Center
Tue 08:52:49 PM 45.2822 -122.9581 39° Northeast 171 197 5,100 -590 Descending Seattle Center
Tue 08:53:31 PM 45.3069 -122.9264 42° Northeast 167 192 4,700 -492 Descending Seattle Center
Tue 08:53:50 PM 45.3172 -122.9158 36° Northeast 167 192 4,600 -590 Descending Seattle Center
Tue 08:54:32 PM 45.3458 -122.8831 39° Northeast 172 198 4,100 -590 Descending Seattle Center
Tue 08:54:51 PM 45.3542 -122.8725 42° Northeast 170 196 4,000 -590 Descending Seattle Center
Tue 08:55:33 PM 45.3778 -122.8367 47° Northeast 154 177 3,500 -590 Descending Seattle Center
Tue 08:55:52 PM 45.3844 -122.8261 48° Northeast 163 188 3,400 -492 Descending Seattle Center
Tue 08:56:34 PM 45.4069 -122.7878 50° Northeast 156 180 3,000 -393 Descending Seattle Center
Tue 08:56:53 PM 45.4131 -122.7825 31° Northeast 155 178 3,000  Level Seattle Center
Tue 08:57:35 PM 45.4364 -122.7514 43° Northeast 141 162 3,000 100 Level Seattle Center
Tue 08:57:53 PM 45.4414 -122.7431 49° Northeast 147 169 3,100  Climbing Seattle Center
Tue 08:58:35 PM 45.4647 -122.7092 46° Northeast 146 168 3,000 -98 Descending Seattle Center
Tue 08:58:54 PM 45.4694 -122.7006 52° Northeast 146 168 3,000 -689 Level Seattle Center
Tue 08:59:36 PM 45.5019 -122.6786 25° Northeast 163 188 2,300 -885 Descending Seattle Center
Tue 08:59:55 PM 45.5078 -122.6717 40° Northeast 153 176 2,100 -885 Descending Seattle Center
Tue 09:00:37 PM 45.5436 -122.6586 14° North 158 182 1,400 -787 Descending Seattle Center
Tue 09:00:56 PM 45.5517 -122.6558 14° North 157 181 1,300 -984 Descending Seattle Center
Tue 09:01:38 PM 45.5761 -122.6267 40° Northeast 123 142 400 -393 Descending Seattle Center
Tue 09:01:57 PM 45.5986 -122.6294 355° North 157 181 900 1,579 Climbing Seattle Center
Tue 09:03:00 PM 45.5887 -122.5969 54° Northeast  Level Estimated

Login

Don't have an account? Register now (free) for customized features, flight alerts, and more!